createdAt,value
2022-10-18T00:00:51.123Z,65.01
2022-10-18T00:01:51.142Z,62.91
2022-10-18T00:02:51.090Z,64.39
2022-10-18T00:03:51.071Z,63.82
2022-10-18T00:04:51.128Z,64.55
2022-10-18T00:05:51.037Z,66.45
2022-10-18T00:06:51.013Z,66.25
2022-10-18T00:07:51.000Z,60.71
2022-10-18T00:08:50.980Z,65.93
2022-10-18T00:09:51.015Z,63.61
2022-10-18T00:10:50.957Z,62.32
2022-10-18T00:11:50.933Z,64.94
2022-10-18T00:12:50.936Z,63.74
2022-10-18T00:13:50.903Z,66.52
2022-10-18T00:14:50.989Z,63.67
2022-10-18T00:15:50.864Z,64.14
2022-10-18T00:16:50.857Z,64.80
2022-10-18T00:17:50.826Z,61.93
2022-10-18T00:18:51.851Z,63.18
2022-10-18T00:19:50.799Z,64.24
2022-10-18T00:20:50.793Z,63.47
2022-10-18T00:21:50.771Z,59.79
2022-10-18T00:22:50.753Z,64.44
2022-10-18T00:23:50.759Z,66.31
2022-10-18T00:24:50.722Z,60.17
2022-10-18T00:25:50.711Z,63.19
2022-10-18T00:26:50.701Z,64.59
2022-10-18T00:27:50.663Z,64.65
2022-10-18T00:28:50.732Z,63.32
2022-10-18T00:29:50.637Z,62.90
2022-10-18T00:31:51.632Z,62.71
2022-10-18T00:32:50.581Z,60.40
2022-10-18T00:33:50.589Z,64.38
2022-10-18T00:34:50.550Z,64.58
2022-10-18T00:35:50.538Z,66.75
2022-10-18T00:36:50.528Z,63.69
2022-10-18T00:37:50.491Z,63.12
2022-10-18T00:38:50.508Z,65.42
2022-10-18T00:39:50.460Z,65.14
2022-10-18T00:40:50.457Z,61.23
2022-10-18T00:41:50.428Z,65.60
2022-10-18T00:42:50.421Z,66.31
2022-10-18T00:43:50.429Z,67.45
2022-10-18T00:44:50.389Z,63.79
2022-10-18T00:45:50.372Z,63.72
2022-10-18T00:46:50.353Z,65.32
2022-10-18T00:47:50.358Z,65.26
2022-10-18T00:48:50.469Z,62.64
2022-10-18T00:49:50.331Z,65.08
2022-10-18T00:50:50.396Z,59.84
2022-10-18T00:51:50.281Z,63.93
2022-10-18T00:52:50.256Z,62.46
2022-10-18T00:53:50.261Z,64.97
2022-10-18T00:54:50.218Z,66.38
2022-10-18T00:55:50.197Z,61.54
2022-10-18T00:56:50.187Z,65.91
2022-10-18T00:57:50.231Z,62.11
2022-10-18T00:58:50.175Z,63.74
2022-10-18T00:59:50.164Z,63.01
2022-10-18T01:00:50.132Z,62.80
2022-10-18T01:01:50.168Z,65.20
2022-10-18T01:02:50.095Z,63.72
2022-10-18T01:03:50.100Z,64.98
2022-10-18T01:04:50.056Z,61.85
2022-10-18T01:05:50.026Z,61.37
2022-10-18T01:06:50.099Z,63.17
2022-10-18T01:07:50.000Z,62.36
2022-10-18T01:08:50.013Z,61.52
2022-10-18T01:09:49.961Z,62.07
2022-10-18T01:10:49.946Z,63.17
2022-10-18T01:11:49.925Z,62.02
2022-10-18T01:12:49.919Z,66.44
2022-10-18T01:13:49.926Z,64.32
2022-10-18T01:14:49.876Z,67.73
2022-10-18T01:15:49.914Z,65.92
2022-10-18T01:16:49.846Z,62.39
2022-10-18T01:17:49.833Z,61.23
2022-10-18T01:18:49.858Z,66.07
2022-10-18T01:19:49.801Z,64.73
2022-10-18T01:20:49.766Z,63.96
2022-10-18T01:21:49.763Z,66.31
2022-10-18T01:22:50.748Z,64.54
2022-10-18T01:23:49.756Z,65.71
2022-10-18T01:24:49.749Z,66.21
2022-10-18T01:25:49.692Z,67.54
2022-10-18T01:26:49.676Z,67.94
2022-10-18T01:27:49.660Z,63.48
2022-10-18T01:28:49.732Z,67.32
2022-10-18T01:29:49.627Z,66.55
2022-10-18T01:30:49.604Z,64.79
2022-10-18T01:31:49.595Z,67.52
2022-10-18T01:32:49.584Z,66.55
2022-10-18T01:33:49.629Z,67.54
2022-10-18T01:34:49.645Z,66.26
2022-10-18T01:35:49.531Z,63.13
2022-10-18T01:36:49.517Z,66.32
2022-10-18T01:37:49.546Z,65.24
2022-10-18T01:38:49.500Z,65.05
2022-10-18T01:39:49.462Z,63.30
2022-10-18T01:40:49.437Z,64.05
2022-10-18T01:41:49.450Z,66.90
2022-10-18T01:42:49.418Z,63.35
2022-10-18T01:43:49.426Z,64.82
2022-10-18T01:44:49.381Z,63.47
2022-10-18T01:45:49.370Z,64.32
2022-10-18T01:46:49.346Z,65.87
2022-10-18T01:47:49.336Z,65.90
2022-10-18T01:48:49.338Z,64.65
2022-10-18T01:49:49.294Z,60.28
2022-10-18T01:50:49.278Z,57.14
2022-10-18T01:51:49.265Z,63.51
2022-10-18T01:52:49.243Z,66.74
2022-10-18T01:53:49.266Z,64.52
2022-10-18T01:54:49.236Z,64.49
2022-10-18T01:55:49.190Z,62.41
2022-10-18T01:56:49.182Z,62.00
2022-10-18T01:57:49.150Z,63.07
2022-10-18T01:58:49.174Z,64.68
2022-10-18T01:59:49.162Z,63.18
2022-10-18T02:00:49.157Z,64.52
2022-10-18T02:01:49.147Z,65.33
2022-10-18T02:02:49.074Z,65.38
2022-10-18T02:03:49.081Z,65.00
2022-10-18T02:04:49.038Z,67.95
2022-10-18T02:05:49.016Z,66.48
2022-10-18T02:06:48.998Z,63.22
2022-10-18T02:07:55.362Z,68.86
2022-10-18T02:08:51.009Z,67.94
2022-10-18T02:09:48.968Z,69.31
2022-10-18T02:10:48.955Z,65.29
2022-10-18T02:11:48.966Z,69.84
2022-10-18T02:12:48.907Z,66.95
2022-10-18T02:13:48.921Z,69.83
2022-10-18T02:14:48.876Z,69.43
2022-10-18T02:15:48.856Z,67.15
2022-10-18T02:16:48.855Z,65.33
2022-10-18T02:17:48.837Z,68.55
2022-10-18T02:18:48.831Z,66.56
2022-10-18T02:19:48.786Z,69.70
2022-10-18T02:20:48.781Z,69.89
2022-10-18T02:21:48.765Z,69.41
2022-10-18T02:22:48.752Z,67.74
2022-10-18T02:23:48.760Z,64.93
2022-10-18T02:24:48.717Z,67.63
2022-10-18T02:25:48.702Z,69.06
2022-10-18T02:26:48.680Z,66.19
2022-10-18T02:27:48.658Z,68.34
2022-10-18T02:28:48.673Z,69.01
2022-10-18T02:29:48.626Z,65.87
2022-10-18T02:30:48.604Z,67.91
2022-10-18T02:31:48.588Z,69.58
2022-10-18T02:32:48.583Z,65.63
2022-10-18T02:33:48.586Z,65.65
2022-10-18T02:34:48.543Z,66.63
2022-10-18T02:35:48.562Z,69.89
2022-10-18T02:36:48.513Z,65.29
2022-10-18T02:37:48.501Z,67.33
2022-10-18T02:38:48.503Z,68.84
2022-10-18T02:39:48.470Z,66.91
2022-10-18T02:40:48.435Z,69.46
2022-10-18T02:41:48.419Z,68.85
2022-10-18T02:42:48.408Z,65.62
2022-10-18T02:43:48.427Z,66.42
2022-10-18T02:44:48.374Z,68.57
2022-10-18T02:45:48.359Z,68.34
2022-10-18T02:46:48.351Z,68.96
2022-10-18T02:47:48.324Z,67.06
2022-10-18T02:48:48.339Z,67.77
2022-10-18T02:49:48.287Z,69.71
2022-10-18T02:50:48.270Z,66.35
2022-10-18T02:51:48.288Z,67.85
2022-10-18T02:52:48.242Z,68.14
2022-10-18T02:53:48.251Z,68.14
2022-10-18T02:54:48.204Z,65.79
2022-10-18T02:55:48.184Z,68.18
2022-10-18T02:56:48.176Z,67.12
2022-10-18T02:57:48.146Z,65.49
2022-10-18T02:58:48.188Z,66.53
2022-10-18T02:59:48.126Z,67.03
2022-10-18T03:00:48.099Z,68.76
2022-10-18T03:01:48.151Z,67.05
2022-10-18T03:02:48.082Z,67.05
2022-10-18T03:03:48.084Z,66.29
2022-10-18T03:04:48.036Z,66.19
2022-10-18T03:05:48.027Z,66.81
2022-10-18T03:06:48.001Z,68.80
2022-10-18T03:07:47.987Z,66.79
2022-10-18T03:08:48.002Z,67.34
2022-10-18T03:09:47.954Z,67.18
2022-10-18T03:10:47.934Z,66.72
2022-10-18T03:11:47.915Z,67.15
2022-10-18T03:12:47.894Z,67.30
2022-10-18T03:13:47.926Z,65.44
2022-10-18T03:14:47.861Z,68.14
2022-10-18T03:15:47.894Z,65.75
2022-10-18T03:16:47.916Z,67.11
2022-10-18T03:17:47.814Z,66.91
2022-10-18T03:18:47.835Z,66.98
2022-10-18T03:19:47.775Z,68.20
2022-10-18T03:21:20.148Z,68.26
2022-10-18T03:21:47.773Z,65.40
2022-10-18T03:22:47.738Z,66.62
2022-10-18T03:23:47.755Z,67.49
2022-10-18T03:24:47.707Z,69.84
2022-10-18T03:25:47.712Z,68.39
2022-10-18T03:26:47.684Z,69.06
2022-10-18T03:27:47.677Z,67.70
2022-10-18T03:28:47.763Z,69.42
2022-10-18T03:29:47.625Z,66.37
2022-10-18T03:30:47.599Z,67.19
2022-10-18T03:31:47.612Z,67.80
2022-10-18T03:32:47.577Z,67.89
2022-10-18T03:33:47.589Z,68.12
2022-10-18T03:34:47.571Z,68.37
2022-10-18T03:35:47.538Z,68.48
2022-10-18T03:36:47.504Z,68.68
2022-10-18T03:37:47.534Z,66.38
2022-10-18T03:38:47.503Z,64.62
2022-10-18T03:39:47.460Z,70.06
2022-10-18T03:40:47.467Z,67.26
2022-10-18T03:41:47.432Z,67.55
2022-10-18T03:42:47.400Z,68.57
2022-10-18T03:43:47.421Z,68.37
2022-10-18T03:44:47.381Z,68.59
2022-10-18T03:45:47.373Z,66.63
2022-10-18T03:46:47.343Z,68.42
2022-10-18T03:47:47.316Z,68.14
2022-10-18T03:48:47.356Z,67.84
2022-10-18T03:49:47.285Z,67.51
2022-10-18T03:50:47.287Z,69.83
2022-10-18T03:51:47.271Z,68.74
2022-10-18T03:52:47.251Z,68.93
2022-10-18T03:53:47.246Z,68.89
2022-10-18T03:54:47.238Z,69.56
2022-10-18T03:55:47.201Z,68.98
2022-10-18T03:56:47.164Z,68.59
2022-10-18T03:57:47.169Z,67.16
2022-10-18T03:58:47.177Z,66.97
2022-10-18T03:59:47.142Z,68.56
2022-10-18T04:00:47.147Z,66.73
2022-10-18T04:01:47.152Z,68.81
2022-10-18T04:02:49.686Z,66.98
2022-10-18T04:03:48.151Z,67.97
2022-10-18T04:04:47.053Z,66.59
2022-10-18T04:05:47.014Z,69.74
2022-10-18T04:06:46.996Z,70.43
2022-10-18T04:07:47.021Z,69.61
2022-10-18T04:08:47.004Z,69.17
2022-10-18T04:09:46.995Z,70.32
2022-10-18T04:10:46.952Z,69.83
2022-10-18T04:11:46.923Z,69.94
2022-10-18T04:12:46.915Z,70.63
2022-10-18T04:13:47.006Z,67.98
2022-10-18T04:14:46.894Z,70.15
2022-10-18T04:15:46.891Z,68.93
2022-10-18T04:16:46.860Z,70.19
2022-10-18T04:17:46.837Z,71.47
2022-10-18T04:18:46.872Z,71.34
2022-10-18T04:19:46.786Z,70.37
2022-10-18T04:20:46.783Z,69.62
2022-10-18T04:21:46.763Z,70.27
2022-10-18T04:22:46.754Z,69.12
2022-10-18T04:23:46.749Z,70.94
2022-10-18T04:24:46.702Z,70.40
2022-10-18T04:25:46.747Z,71.19
2022-10-18T04:26:46.672Z,71.32
2022-10-18T04:27:46.663Z,70.34
2022-10-18T04:28:46.716Z,69.86
2022-10-18T04:29:46.652Z,70.56
2022-10-18T04:30:46.627Z,67.05
2022-10-18T04:31:46.601Z,68.98
2022-10-18T04:32:46.583Z,69.34
2022-10-18T04:33:46.594Z,68.83
2022-10-18T04:34:46.571Z,69.47
2022-10-18T04:35:46.519Z,69.48
2022-10-18T04:36:46.507Z,69.24
2022-10-18T04:37:46.523Z,70.15
2022-10-18T04:38:46.503Z,68.81
2022-10-18T04:39:48.604Z,69.20
2022-10-18T04:40:47.460Z,69.07
2022-10-18T04:41:46.430Z,68.92
2022-10-18T04:42:46.406Z,69.56
2022-10-18T04:44:46.392Z,68.46
2022-10-18T04:45:46.367Z,68.86
2022-10-18T04:46:46.345Z,68.65
2022-10-18T04:47:46.335Z,69.99
2022-10-18T04:48:46.375Z,70.60
2022-10-18T04:49:46.296Z,68.95
2022-10-18T04:50:46.268Z,69.25
2022-10-18T04:51:46.251Z,69.61
2022-10-18T04:52:46.285Z,69.08
2022-10-18T04:53:46.284Z,68.64
2022-10-18T04:54:46.198Z,70.25
2022-10-18T04:55:46.195Z,70.03
2022-10-18T04:56:46.203Z,68.95
2022-10-18T04:57:46.178Z,69.54
2022-10-18T04:58:46.191Z,67.73
2022-10-18T04:59:46.139Z,69.49
2022-10-18T05:00:46.147Z,70.00
2022-10-18T05:01:46.186Z,69.49
2022-10-18T05:02:46.079Z,69.59
2022-10-18T05:03:46.085Z,69.45
2022-10-18T05:04:46.048Z,69.53
2022-10-18T05:06:01.334Z,68.12
2022-10-18T05:06:48.019Z,68.55
2022-10-18T05:07:45.971Z,70.01
2022-10-18T05:08:45.988Z,69.27
2022-10-18T05:09:45.933Z,70.47
2022-10-18T05:10:45.936Z,68.85
2022-10-18T05:11:45.906Z,70.62
2022-10-18T05:12:45.918Z,70.82
2022-10-18T05:13:47.307Z,68.42
2022-10-18T05:14:45.862Z,70.57
2022-10-18T05:15:45.850Z,70.31
2022-10-18T05:16:45.825Z,70.78
2022-10-18T05:17:45.830Z,70.17
2022-10-18T05:18:45.828Z,69.25
2022-10-18T05:19:45.780Z,69.30
2022-10-18T05:20:45.803Z,68.88
2022-10-18T05:21:45.775Z,68.42
2022-10-18T05:22:45.729Z,70.48
2022-10-18T05:23:45.765Z,69.56
2022-10-18T05:24:45.691Z,65.96
2022-10-18T05:25:45.677Z,69.20
2022-10-18T05:26:45.636Z,70.22
2022-10-18T05:27:46.654Z,69.48
2022-10-18T05:28:45.728Z,67.24
2022-10-18T05:29:45.609Z,69.24
2022-10-18T05:30:45.629Z,68.41
2022-10-18T05:31:45.624Z,69.43
2022-10-18T05:32:45.571Z,68.76
2022-10-18T05:33:45.577Z,69.91
2022-10-18T05:34:45.538Z,68.96
2022-10-18T05:35:45.497Z,70.13
2022-10-18T05:36:45.488Z,69.68
2022-10-18T05:37:45.497Z,68.33
2022-10-18T05:38:45.542Z,68.64
2022-10-18T05:39:45.467Z,68.98
2022-10-18T05:40:45.427Z,68.81
2022-10-18T05:41:45.417Z,69.84
2022-10-18T05:42:45.461Z,68.73
2022-10-18T05:43:45.416Z,66.21
2022-10-18T05:44:45.365Z,70.19
2022-10-18T05:45:45.363Z,68.33
2022-10-18T05:46:45.349Z,67.89
2022-10-18T05:47:45.315Z,69.99
2022-10-18T05:48:45.329Z,68.74
2022-10-18T05:49:45.321Z,68.40
2022-10-18T05:50:45.265Z,69.96
2022-10-18T05:51:45.243Z,68.85
2022-10-18T05:52:45.210Z,69.14
2022-10-18T05:53:45.250Z,68.36
2022-10-18T05:54:45.211Z,69.13
2022-10-18T05:55:45.172Z,67.58
2022-10-18T05:56:45.167Z,70.12
2022-10-18T05:57:45.177Z,66.53
2022-10-18T05:58:45.182Z,68.94
2022-10-18T05:59:45.104Z,68.46
2022-10-18T06:00:45.092Z,67.63
2022-10-18T06:01:45.073Z,69.16
2022-10-18T06:02:45.098Z,68.07
2022-10-18T06:03:45.060Z,69.18
2022-10-18T06:04:45.066Z,67.97
2022-10-18T06:05:45.019Z,67.05
2022-10-18T06:06:44.989Z,68.01
2022-10-18T06:07:44.991Z,66.65
2022-10-18T06:08:44.991Z,67.49
2022-10-18T06:09:44.970Z,69.24
2022-10-18T06:10:44.926Z,68.72
2022-10-18T06:11:44.915Z,69.33
2022-10-18T06:12:44.914Z,68.51
2022-10-18T06:13:44.896Z,69.74
2022-10-18T06:14:44.895Z,67.91
2022-10-18T06:15:44.853Z,67.85
2022-10-18T06:16:44.808Z,67.81
2022-10-18T06:17:44.811Z,69.83
2022-10-18T06:18:44.856Z,68.62
2022-10-18T06:19:44.878Z,69.74
2022-10-18T06:20:44.779Z,69.90
2022-10-18T06:21:44.749Z,70.14
2022-10-18T06:22:44.707Z,69.44
2022-10-18T06:23:44.711Z,70.36
2022-10-18T06:24:44.700Z,68.52
2022-10-18T06:25:44.666Z,68.29
2022-10-18T06:26:44.683Z,69.33
2022-10-18T06:27:44.622Z,70.24
2022-10-18T06:28:44.662Z,70.12
2022-10-18T06:29:44.638Z,70.39
2022-10-18T06:30:44.589Z,69.92
2022-10-18T06:31:44.575Z,69.12
2022-10-18T06:32:44.556Z,69.25
2022-10-18T06:33:44.606Z,70.11
2022-10-18T06:34:44.584Z,69.95
2022-10-18T06:35:44.513Z,68.12
2022-10-18T06:36:44.484Z,70.26
2022-10-18T06:37:44.517Z,69.71
2022-10-18T06:38:44.455Z,70.56
2022-10-18T06:39:44.459Z,68.82
2022-10-18T06:40:44.423Z,69.88
2022-10-18T06:41:44.412Z,69.60
2022-10-18T06:42:50.955Z,68.22
2022-10-18T06:43:45.391Z,69.16
2022-10-18T06:44:44.489Z,68.74
2022-10-18T06:45:44.335Z,68.93
2022-10-18T06:46:44.322Z,69.04
2022-10-18T06:47:44.337Z,69.21
2022-10-18T06:48:44.504Z,68.01
2022-10-18T06:49:44.323Z,68.39
2022-10-18T06:50:44.239Z,69.40
2022-10-18T06:51:44.238Z,69.95
2022-10-18T06:52:44.209Z,68.70
2022-10-18T06:53:53.445Z,68.71
2022-10-18T06:54:46.190Z,68.38
2022-10-18T06:55:45.216Z,68.11
2022-10-18T06:56:44.145Z,69.12
2022-10-18T06:57:44.120Z,67.75
2022-10-18T06:58:44.173Z,69.13
2022-10-18T06:59:44.087Z,68.55
2022-10-18T07:00:44.102Z,67.82
2022-10-18T07:01:44.168Z,68.96
2022-10-18T07:02:44.046Z,69.10
2022-10-18T07:03:44.063Z,69.61
2022-10-18T07:04:44.013Z,67.83
2022-10-18T07:05:43.997Z,68.49
2022-10-18T07:06:43.969Z,68.77
2022-10-18T07:07:43.975Z,68.84
2022-10-18T07:08:43.983Z,69.12
2022-10-18T07:09:43.930Z,69.75
2022-10-18T07:10:43.894Z,69.86
2022-10-18T07:11:43.900Z,69.41
2022-10-18T07:12:43.862Z,71.05
2022-10-18T07:13:43.892Z,68.38
2022-10-18T07:14:43.836Z,68.44
2022-10-18T07:15:43.831Z,66.84
2022-10-18T07:16:43.836Z,68.30
2022-10-18T07:17:43.805Z,69.27
2022-10-18T07:18:43.803Z,67.96
2022-10-18T07:19:43.779Z,67.38
2022-10-18T07:20:43.752Z,68.47
2022-10-18T07:21:43.717Z,68.77
2022-10-18T07:22:43.717Z,67.55
2022-10-18T07:23:43.774Z,67.17
2022-10-18T07:24:43.691Z,68.29
2022-10-18T07:25:43.655Z,67.16
2022-10-18T07:26:43.639Z,66.96
2022-10-18T07:27:43.650Z,69.06
2022-10-18T07:28:43.705Z,67.92
2022-10-18T07:29:43.600Z,67.09
2022-10-18T07:30:43.592Z,67.42
2022-10-18T07:31:43.556Z,67.36
2022-10-18T07:32:43.570Z,68.28
2022-10-18T07:33:43.565Z,68.95
2022-10-18T07:34:43.523Z,68.86
2022-10-18T07:35:43.551Z,69.59
2022-10-18T07:36:43.472Z,70.33
2022-10-18T07:37:43.483Z,69.24
2022-10-18T07:38:43.493Z,69.24
2022-10-18T07:39:43.470Z,67.44
2022-10-18T07:40:43.395Z,67.12
2022-10-18T07:41:43.469Z,70.05
2022-10-18T07:42:43.377Z,68.79
2022-10-18T07:43:43.409Z,70.26
2022-10-18T07:44:43.331Z,68.72
2022-10-18T07:45:43.360Z,68.70
2022-10-18T07:46:43.336Z,69.46
2022-10-18T07:47:43.288Z,69.80
2022-10-18T07:48:43.331Z,68.75
2022-10-18T07:49:43.258Z,68.92
2022-10-18T07:50:43.265Z,67.49
2022-10-18T07:51:43.256Z,70.23
2022-10-18T07:52:43.223Z,68.73
2022-10-18T07:53:43.229Z,68.88
2022-10-18T07:54:43.205Z,69.42
2022-10-18T07:55:43.145Z,67.68
2022-10-18T07:56:43.188Z,69.01
2022-10-18T07:57:43.138Z,68.87
2022-10-18T07:58:43.106Z,69.33
2022-10-18T07:59:43.118Z,69.52
2022-10-18T08:00:43.243Z,68.33
2022-10-18T08:01:43.128Z,70.03
2022-10-18T08:02:43.035Z,68.91
2022-10-18T08:03:43.046Z,70.11
2022-10-18T08:04:43.105Z,69.65
2022-10-18T08:05:42.990Z,69.36
2022-10-18T08:06:42.976Z,69.55
2022-10-18T08:07:43.013Z,69.29
2022-10-18T08:08:42.955Z,67.73
2022-10-18T08:09:42.966Z,68.46
2022-10-18T08:10:42.901Z,69.18
2022-10-18T08:11:42.898Z,68.09
2022-10-18T08:12:43.113Z,65.63
2022-10-18T08:13:42.860Z,65.49
2022-10-18T08:14:42.875Z,68.18
2022-10-18T08:15:42.853Z,67.70
2022-10-18T08:16:42.801Z,67.55
2022-10-18T08:17:42.792Z,69.79
2022-10-18T08:18:42.809Z,69.53
2022-10-18T08:19:52.814Z,67.38
2022-10-18T08:20:44.740Z,70.16
2022-10-18T08:21:42.741Z,67.80
2022-10-18T08:22:42.790Z,67.37
2022-10-18T08:23:42.701Z,67.03
2022-10-18T08:24:42.717Z,67.58
2022-10-18T08:25:42.663Z,66.16
2022-10-18T08:26:42.673Z,66.92
2022-10-18T08:27:42.626Z,67.01
2022-10-18T08:28:49.173Z,67.04
2022-10-18T08:29:44.657Z,69.63
2022-10-18T08:30:42.576Z,66.07
2022-10-18T08:31:42.571Z,66.71
2022-10-18T08:32:42.548Z,66.40
2022-10-18T08:33:42.536Z,66.54
2022-10-18T08:34:42.596Z,65.35
2022-10-18T08:35:42.521Z,64.67
2022-10-18T08:36:42.494Z,67.98
2022-10-18T08:37:42.460Z,65.59
2022-10-18T08:38:42.451Z,66.31
2022-10-18T08:39:42.479Z,66.25
2022-10-18T08:40:42.406Z,67.83
2022-10-18T08:41:42.410Z,66.38
2022-10-18T08:42:42.371Z,65.58
2022-10-18T08:43:42.576Z,65.19
2022-10-18T08:44:42.353Z,67.81
2022-10-18T08:45:43.336Z,65.96
2022-10-18T08:46:43.327Z,66.30
2022-10-18T08:47:42.312Z,65.55
2022-10-18T08:48:42.305Z,67.53
2022-10-18T08:49:46.587Z,66.55
2022-10-18T08:50:43.263Z,67.56
2022-10-18T08:51:42.229Z,67.45
2022-10-18T08:52:42.200Z,66.92
2022-10-18T08:53:42.241Z,68.90
2022-10-18T08:54:42.162Z,67.91
2022-10-18T08:55:42.170Z,66.61
2022-10-18T08:56:42.153Z,66.81
2022-10-18T08:57:42.126Z,67.53
2022-10-18T08:58:42.153Z,66.30
2022-10-18T08:59:42.090Z,64.32
2022-10-18T09:00:42.100Z,66.10
2022-10-18T09:01:42.157Z,66.45
2022-10-18T09:02:42.050Z,67.59
2022-10-18T09:03:42.106Z,65.72
2022-10-18T09:04:42.047Z,67.30
2022-10-18T09:05:41.970Z,65.71
2022-10-18T09:06:41.984Z,67.13
2022-10-18T09:07:41.962Z,66.63
2022-10-18T09:08:41.975Z,66.92
2022-10-18T09:09:41.908Z,66.57
2022-10-18T09:10:41.909Z,65.71
2022-10-18T09:11:41.883Z,67.87
2022-10-18T09:12:41.891Z,65.27
2022-10-18T09:13:41.906Z,66.82
2022-10-18T09:14:41.876Z,66.14
2022-10-18T09:15:41.823Z,67.54
2022-10-18T09:16:41.798Z,67.40
2022-10-18T09:17:41.802Z,67.26
2022-10-18T09:18:41.802Z,66.06
2022-10-18T09:19:41.768Z,67.07
2022-10-18T09:20:41.733Z,68.60
2022-10-18T09:21:41.734Z,67.26
2022-10-18T09:22:41.703Z,68.21
2022-10-18T09:23:41.728Z,66.84
2022-10-18T09:24:41.697Z,66.60
2022-10-18T09:25:41.653Z,67.53
2022-10-18T09:26:41.646Z,68.22
2022-10-18T09:27:41.684Z,68.04
2022-10-18T09:28:41.723Z,68.92
2022-10-18T09:29:41.584Z,67.00
2022-10-18T09:30:41.580Z,67.54
2022-10-18T09:31:41.577Z,66.61
2022-10-18T09:32:41.543Z,67.54
2022-10-18T09:33:41.573Z,67.44
2022-10-18T09:34:41.510Z,67.72
2022-10-18T09:35:41.523Z,67.84
2022-10-18T09:36:41.488Z,68.16
2022-10-18T09:37:41.475Z,67.27
2022-10-18T09:38:41.562Z,67.77
2022-10-18T09:39:41.430Z,64.47
2022-10-18T09:40:41.431Z,66.07
2022-10-18T09:41:41.390Z,67.84
2022-10-18T09:42:41.370Z,67.60
2022-10-18T09:43:41.355Z,67.03
2022-10-18T09:44:41.361Z,67.03
2022-10-18T09:45:41.321Z,67.70
2022-10-18T09:46:41.320Z,66.50
2022-10-18T09:47:41.280Z,65.72
2022-10-18T09:48:41.267Z,68.89
2022-10-18T09:49:41.299Z,69.26
2022-10-18T09:50:41.249Z,66.59
2022-10-18T09:51:41.206Z,68.54
2022-10-18T09:52:41.205Z,68.08
2022-10-18T09:53:41.265Z,66.80
2022-10-18T09:54:41.231Z,67.98
2022-10-18T09:55:41.148Z,67.59
2022-10-18T09:56:42.041Z,67.22
2022-10-18T09:57:41.124Z,68.91
2022-10-18T09:58:41.112Z,68.24
2022-10-18T09:59:41.114Z,66.98
2022-10-18T10:00:41.069Z,69.11
2022-10-18T10:01:41.078Z,67.99
2022-10-18T10:02:41.100Z,68.20
2022-10-18T10:03:41.005Z,66.77
2022-10-18T10:04:41.010Z,66.71
2022-10-18T10:05:40.996Z,66.35
2022-10-18T10:06:40.953Z,67.99
2022-10-18T10:07:41.266Z,66.81
2022-10-18T10:08:40.928Z,65.33
2022-10-18T10:09:40.928Z,67.49
2022-10-18T10:10:40.883Z,67.36
2022-10-18T10:11:40.865Z,67.46
2022-10-18T10:12:40.850Z,63.26
2022-10-18T10:13:40.906Z,67.24
2022-10-18T10:14:40.826Z,65.77
2022-10-18T10:15:42.606Z,65.78
2022-10-18T10:16:41.788Z,66.75
2022-10-18T10:17:40.773Z,67.72
2022-10-18T10:18:40.826Z,65.85
2022-10-18T10:19:40.733Z,65.53
2022-10-18T10:20:40.747Z,65.52
2022-10-18T10:21:40.727Z,64.85
2022-10-18T10:22:40.676Z,65.85
2022-10-18T10:23:40.702Z,65.78
2022-10-18T10:24:40.662Z,65.09
2022-10-18T10:25:40.624Z,65.35
2022-10-18T10:26:40.607Z,64.46
2022-10-18T10:27:40.591Z,64.59
2022-10-18T10:28:40.629Z,64.36
2022-10-18T10:29:44.808Z,65.28
2022-10-18T10:30:41.540Z,64.45
2022-10-18T10:31:40.542Z,65.82
2022-10-18T10:32:40.563Z,66.01
2022-10-18T10:33:40.544Z,66.08
2022-10-18T10:34:42.442Z,65.24
2022-10-18T10:35:55.820Z,66.10
2022-10-18T10:36:42.459Z,66.93
2022-10-18T10:37:40.438Z,67.53
2022-10-18T10:38:40.436Z,65.53
2022-10-18T10:39:42.869Z,64.07
2022-10-18T10:40:40.394Z,66.26
2022-10-18T10:41:40.379Z,63.95
2022-10-18T10:42:40.345Z,62.32
2022-10-18T10:43:40.589Z,62.85
2022-10-18T10:44:40.303Z,64.10
2022-10-18T10:45:40.302Z,65.92
2022-10-18T10:46:40.344Z,65.75
2022-10-18T10:47:40.268Z,64.49
2022-10-18T10:48:40.288Z,63.90
2022-10-18T10:49:41.362Z,65.63
2022-10-18T10:50:41.225Z,65.08
2022-10-18T10:51:40.216Z,67.14
2022-10-18T10:52:40.500Z,65.72
2022-10-18T10:53:40.217Z,65.49
2022-10-18T10:54:40.147Z,65.53
2022-10-18T10:55:40.167Z,65.18
2022-10-18T10:56:40.122Z,63.02
2022-10-18T10:57:40.092Z,64.89
2022-10-18T10:58:40.208Z,64.30
2022-10-18T11:00:40.072Z,65.28
2022-10-18T11:01:40.043Z,65.18
2022-10-18T11:02:40.109Z,65.12
2022-10-18T11:03:40.087Z,62.58
2022-10-18T11:04:40.017Z,63.15
2022-10-18T11:05:39.978Z,62.89
2022-10-18T11:06:39.960Z,65.12
2022-10-18T11:07:39.964Z,65.89
2022-10-18T11:08:39.990Z,64.53
2022-10-18T11:09:39.927Z,66.23
2022-10-18T11:10:39.907Z,65.11
2022-10-18T11:11:39.887Z,64.89
2022-10-18T11:12:39.874Z,65.79
2022-10-18T11:13:39.889Z,63.08
2022-10-18T11:14:39.845Z,65.58
2022-10-18T11:15:39.837Z,66.09
2022-10-18T11:16:39.847Z,65.14
2022-10-18T11:17:39.763Z,64.43
2022-10-18T11:18:39.805Z,67.27
2022-10-18T11:19:39.729Z,66.64
2022-10-18T11:20:39.816Z,64.16
2022-10-18T11:21:39.699Z,64.32
2022-10-18T11:22:39.785Z,66.06
2022-10-18T11:23:39.736Z,67.28
2022-10-18T11:24:39.674Z,66.62
2022-10-18T11:25:39.667Z,65.60
2022-10-18T11:26:42.042Z,64.76
2022-10-18T11:27:39.601Z,66.17
2022-10-18T11:28:40.655Z,66.34
2022-10-18T11:29:39.609Z,64.41
2022-10-18T11:30:39.563Z,63.22
2022-10-18T11:31:39.546Z,66.66
2022-10-18T11:32:39.522Z,66.77
2022-10-18T11:34:06.964Z,65.29
2022-10-18T11:34:41.507Z,63.08
2022-10-18T11:35:39.485Z,61.78
2022-10-18T11:36:45.492Z,62.10
2022-10-18T11:37:41.763Z,62.77
2022-10-18T11:38:39.473Z,65.81
2022-10-18T11:39:40.425Z,64.99
2022-10-18T11:40:39.403Z,65.36
2022-10-18T11:41:39.383Z,67.14
2022-10-18T11:42:40.193Z,66.38
2022-10-18T11:44:00.983Z,65.96
2022-10-18T11:44:41.333Z,66.47
2022-10-18T11:45:39.310Z,64.77
2022-10-18T11:46:39.301Z,65.09
2022-10-18T11:47:39.303Z,67.42
2022-10-18T11:48:39.306Z,65.78
2022-10-18T11:49:39.288Z,66.25
2022-10-18T11:50:39.276Z,65.68
2022-10-18T11:51:56.344Z,66.03
2022-10-18T11:52:41.199Z,64.95
2022-10-18T11:53:39.191Z,65.45
2022-10-18T11:55:39.195Z,66.28
2022-10-18T11:56:39.173Z,66.87
2022-10-18T11:57:39.158Z,66.54
2022-10-18T11:58:39.111Z,65.35
2022-10-18T11:59:40.121Z,65.42
2022-10-18T12:00:39.151Z,65.05
2022-10-18T12:01:39.083Z,65.52
2022-10-18T12:02:39.087Z,66.95
2022-10-18T12:03:39.024Z,67.39
2022-10-18T12:04:49.045Z,65.48
2022-10-18T12:05:41.024Z,66.44
2022-10-18T12:06:39.121Z,65.74
2022-10-18T12:07:38.941Z,65.62
2022-10-18T12:08:39.930Z,65.82
2022-10-18T12:09:39.050Z,64.88
2022-10-18T12:11:00.036Z,66.77
2022-10-18T12:11:41.857Z,66.65
2022-10-18T12:12:38.904Z,66.30
2022-10-18T12:13:38.852Z,67.86
2022-10-18T12:14:38.871Z,67.62
2022-10-18T12:15:38.821Z,66.23
2022-10-18T12:16:51.069Z,66.40
2022-10-18T12:17:46.151Z,67.17
2022-10-18T12:18:40.823Z,65.92
2022-10-18T12:19:38.843Z,67.83
2022-10-18T12:20:38.760Z,67.61
2022-10-18T12:21:38.718Z,66.88
2022-10-18T12:22:38.725Z,67.21
2022-10-18T12:23:38.689Z,66.63
2022-10-18T12:24:38.704Z,66.76
2022-10-18T12:25:38.664Z,63.51
2022-10-18T12:26:38.647Z,64.25
2022-10-18T12:27:38.610Z,65.35
2022-10-18T12:28:38.635Z,66.67
2022-10-18T12:29:38.609Z,67.76
2022-10-18T12:30:38.614Z,67.05
2022-10-18T12:31:38.546Z,63.51
2022-10-18T12:32:38.538Z,65.74
2022-10-18T12:33:38.540Z,65.78
2022-10-18T12:34:38.511Z,65.35
2022-10-18T12:35:38.505Z,64.86
2022-10-18T12:36:38.454Z,65.29
2022-10-18T12:37:38.464Z,65.08
2022-10-18T12:38:38.441Z,68.25
2022-10-18T12:39:43.698Z,67.49
2022-10-18T12:40:39.413Z,66.49
2022-10-18T12:41:38.390Z,67.06
2022-10-18T12:42:38.347Z,66.35
2022-10-18T12:43:38.354Z,66.84
2022-10-18T12:44:38.359Z,66.89
2022-10-18T12:45:38.291Z,66.97
2022-10-18T12:46:38.295Z,67.50
2022-10-18T12:47:38.279Z,66.75
2022-10-18T12:48:38.266Z,67.76
2022-10-18T12:49:40.269Z,66.75
2022-10-18T12:50:38.304Z,67.34
2022-10-18T12:51:38.202Z,65.84
2022-10-18T12:52:38.191Z,68.31
2022-10-18T12:53:38.176Z,67.21
2022-10-18T12:54:38.179Z,68.26
2022-10-18T12:55:38.198Z,68.07
2022-10-18T12:56:38.105Z,67.79